Time;durP1;ratioP1;P1;durP2;ratioP2;P2;SDS_P1;SDS_P2;PMS_P1;PMS_P2;Temp;Humidity;BMP_temperature;BMP_pressure;BME280_temperature;BME280_humidity;BME280_pressure;Samples;Min_cycle;Max_cycle;Signal;HPM_P1;HPM_P2
2024/01/19 00:01:38;;;;;;;6.47;2.80;;;-0.30;99.90;;;;;;5019736;28;20038;-78
2024/01/19 00:04:04;;;;;;;5.18;2.40;;;-0.30;99.90;;;;;;5035670;28;20049;-79
2024/01/19 00:06:29;;;;;;;7.18;2.92;;;-0.30;99.90;;;;;;5034867;28;20053;-78
2024/01/19 00:08:57;;;;;;;9.35;2.53;;;-0.30;99.90;;;;;;5016243;28;20048;-78
2024/01/19 00:11:22;;;;;;;9.80;3.15;;;-0.30;99.90;;;;;;5033124;28;20124;-78
2024/01/19 00:13:48;;;;;;;9.93;3.13;;;-0.30;99.90;;;;;;5023448;28;20128;-79
2024/01/19 00:16:14;;;;;;;7.45;2.50;;;-0.20;99.90;;;;;;5015034;28;20048;-78
2024/01/19 00:18:40;;;;;;;12.32;2.85;;;-0.30;99.90;;;;;;5031371;28;20074;-79
2024/01/19 00:21:05;;;;;;;10.48;3.60;;;-0.30;99.90;;;;;;5020122;28;20402;-78
2024/01/19 00:23:31;;;;;;;7.00;2.83;;;-0.30;99.90;;;;;;5026705;28;20389;-78
2024/01/19 00:25:57;;;;;;;12.93;3.05;;;-0.20;99.90;;;;;;5038893;28;20514;-78
2024/01/19 00:28:22;;;;;;;11.45;2.92;;;-0.20;99.90;;;;;;5028386;28;20132;-79
2024/01/19 00:30:48;;;;;;;11.40;3.20;;;-0.20;99.90;;;;;;5026499;28;20073;-78
2024/01/19 00:33:14;;;;;;;7.82;3.20;;;-0.30;99.90;;;;;;5020679;28;20421;-78
2024/01/19 00:35:39;;;;;;;11.02;3.22;;;-0.20;99.90;;;;;;5031600;28;20119;-77
2024/01/19 00:38:05;;;;;;;9.43;3.03;;;0.00;99.90;;;;;;5023813;28;20033;-78
2024/01/19 00:40:30;;;;;;;6.97;3.28;;;-0.30;99.90;;;;;;5020567;28;20107;-78
2024/01/19 00:42:56;;;;;;;10.90;2.95;;;0.00;99.90;;;;;;5027120;28;20065;-78
2024/01/19 00:45:22;;;;;;;10.65;3.45;;;-0.30;99.90;;;;;;5028220;28;20052;-77
2024/01/19 00:47:47;;;;;;;8.98;2.85;;;-0.30;99.90;;;;;;5018618;28;20120;-78
2024/01/19 00:50:13;;;;;;;10.82;2.83;;;-0.30;99.90;;;;;;5028347;28;20611;-78
2024/01/19 00:52:39;;;;;;;11.27;2.90;;;-0.30;99.90;;;;;;5034629;28;20041;-78
2024/01/19 00:55:05;;;;;;;10.73;2.83;;;-0.30;99.90;;;;;;5021206;28;20037;-79
2024/01/19 00:57:31;;;;;;;9.00;3.00;;;-0.40;99.90;;;;;;5025831;28;20076;-79
2024/01/19 00:59:56;;;;;;;6.97;2.80;;;-0.10;99.90;;;;;;5051145;28;20095;-78
2024/01/19 01:02:22;;;;;;;9.65;2.85;;;-0.40;99.90;;;;;;5028673;28;20098;-78
2024/01/19 01:04:47;;;;;;;11.25;3.70;;;-0.40;99.90;;;;;;5024902;28;20517;-78
2024/01/19 01:07:13;;;;;;;7.28;2.70;;;-0.40;99.90;;;;;;5033591;28;20486;-79
2024/01/19 01:09:39;;;;;;;10.32;3.05;;;-0.40;99.90;;;;;;5022422;28;20037;-78
2024/01/19 01:12:05;;;;;;;7.43;2.83;;;-0.40;99.90;;;;;;5028922;28;20040;-77
2024/01/19 01:14:30;;;;;;;7.00;2.70;;;-0.40;99.90;;;;;;5025683;28;20398;-78
2024/01/19 01:16:56;;;;;;;8.85;3.00;;;-0.40;99.90;;;;;;5027474;28;20044;-79
2024/01/19 01:19:22;;;;;;;9.73;2.28;;;-0.40;99.90;;;;;;5027143;28;20042;-78
2024/01/19 01:21:47;;;;;;;8.93;3.10;;;-0.40;99.90;;;;;;5019780;28;20047;-78
2024/01/19 01:24:13;;;;;;;9.38;2.97;;;-0.40;99.90;;;;;;5028504;28;20077;-78
2024/01/19 01:26:38;;;;;;;9.85;2.85;;;-0.40;99.90;;;;;;5030808;28;20052;-78
2024/01/19 01:29:04;;;;;;;14.02;3.25;;;-0.10;99.90;;;;;;5025781;28;20117;-78
2024/01/19 01:31:29;;;;;;;6.28;2.85;;;-0.30;99.90;;;;;;5011536;28;20151;-78
2024/01/19 01:33:55;;;;;;;8.00;3.40;;;-0.30;99.90;;;;;;5051041;28;20045;-78
2024/01/19 01:36:20;;;;;;;7.40;2.78;;;-0.30;99.90;;;;;;5027433;28;20056;-79
2024/01/19 01:38:46;;;;;;;11.95;2.78;;;-0.30;99.90;;;;;;5024178;28;20490;-78
2024/01/19 01:41:12;;;;;;;8.35;2.67;;;-0.30;99.90;;;;;;5023383;28;20077;-78
2024/01/19 01:43:37;;;;;;;7.30;2.45;;;0.00;99.90;;;;;;5003931;28;20486;-77
2024/01/19 01:46:03;;;;;;;12.63;3.25;;;-0.20;99.90;;;;;;5016492;28;20049;-78
2024/01/19 01:48:29;;;;;;;9.63;2.90;;;-0.20;99.90;;;;;;5026241;28;20037;-79
2024/01/19 01:50:56;;;;;;;7.63;2.80;;;-0.20;99.90;;;;;;5043052;28;20508;-78
2024/01/19 01:53:22;;;;;;;11.70;3.28;;;-0.20;99.90;;;;;;5023320;28;20535;-78
2024/01/19 01:55:48;;;;;;;10.23;3.08;;;0.20;99.90;;;;;;5017152;28;20045;-77
2024/01/19 01:58:16;;;;;;;6.57;2.60;;;-0.10;99.90;;;;;;5019173;28;20116;-78
2024/01/19 02:00:43;;;;;;;8.50;3.00;;;-0.10;99.90;;;;;;5050445;28;20069;-78
2024/01/19 02:03:08;;;;;;;5.97;2.50;;;-0.10;99.90;;;;;;5020499;28;20083;-77
2024/01/19 02:05:34;;;;;;;8.45;2.90;;;0.00;99.90;;;;;;5023568;28;20052;-78
2024/01/19 02:08:00;;;;;;;11.55;3.33;;;0.00;99.90;;;;;;5029087;28;20045;-77
2024/01/19 02:10:26;;;;;;;9.27;2.55;;;0.00;99.90;;;;;;5033154;28;20063;-79
2024/01/19 02:12:52;;;;;;;13.63;3.25;;;-0.10;99.90;;;;;;5014932;28;20041;-77
2024/01/19 02:15:23;;;;;;;7.95;2.90;;;0.00;99.90;;;;;;5018858;28;20029;-79
2024/01/19 02:17:50;;;;;;;9.82;3.05;;;-0.10;99.90;;;;;;5047900;28;20033;-78
2024/01/19 02:20:16;;;;;;;9.38;2.72;;;-0.10;99.90;;;;;;5027171;28;20139;-77
2024/01/19 02:22:43;;;;;;;10.77;3.10;;;-0.10;99.90;;;;;;5025611;28;20505;-79
2024/01/19 02:25:09;;;;;;;11.02;3.15;;;-0.20;99.90;;;;;;5033098;28;20561;-78
2024/01/19 02:27:35;;;;;;;8.98;3.08;;;-0.20;99.90;;;;;;5032778;28;20119;-78
2024/01/19 02:30:01;;;;;;;10.52;3.17;;;-0.20;99.90;;;;;;5021004;28;20038;-78
2024/01/19 02:32:27;;;;;;;10.38;3.28;;;-0.20;99.90;;;;;;5045272;28;20048;-80
2024/01/19 02:34:52;;;;;;;7.97;3.10;;;-0.20;99.90;;;;;;5031437;28;20053;-80
2024/01/19 02:37:19;;;;;;;10.90;2.90;;;1.70;99.90;;;;;;5027185;28;20042;-79
2024/01/19 02:39:44;;;;;;;8.38;3.50;;;-0.20;99.90;;;;;;5037059;28;20044;-77
2024/01/19 02:42:10;;;;;;;9.48;3.03;;;-0.20;99.90;;;;;;5036988;28;20048;-77
2024/01/19 02:44:35;;;;;;;11.80;3.58;;;-0.30;99.90;;;;;;5021217;28;20045;-78
2024/01/19 02:47:01;;;;;;;12.02;3.33;;;-0.20;99.90;;;;;;5030018;28;20402;-77
2024/01/19 02:49:27;;;;;;;5.63;2.90;;;-0.20;99.90;;;;;;5045044;28;20041;-77
2024/01/19 02:51:52;;;;;;;10.43;3.60;;;-0.20;99.90;;;;;;5025147;28;20474;-78
2024/01/19 02:54:18;;;;;;;8.07;3.30;;;-0.10;99.90;;;;;;5033215;28;20425;-77
2024/01/19 02:56:43;;;;;;;5.38;2.90;;;-0.10;99.90;;;;;;5031862;28;20139;-78
2024/01/19 02:59:09;;;;;;;6.38;2.20;;;0.20;99.90;;;;;;5036787;28;20048;-77
2024/01/19 03:01:35;;;;;;;7.53;1.60;;;-0.10;99.90;;;;;;5048454;28;20113;-77
2024/01/19 03:04:02;;;;;;;5.30;1.45;;;0.00;99.90;;;;;;5042545;28;20048;-79
2024/01/19 03:06:28;;;;;;;7.22;1.38;;;0.10;99.90;;;;;;5016759;28;20490;-79
2024/01/19 03:08:53;;;;;;;4.65;0.85;;;0.10;99.90;;;;;;5022060;28;20037;-78
2024/01/19 03:11:19;;;;;;;4.97;1.02;;;0.20;99.90;;;;;;5027381;28;20451;-77
2024/01/19 03:13:45;;;;;;;2.72;0.85;;;0.20;99.90;;;;;;5030115;28;20453;-77
2024/01/19 03:16:10;;;;;;;3.72;1.05;;;0.20;99.90;;;;;;5021290;28;20036;-78
2024/01/19 03:18:36;;;;;;;6.45;1.05;;;0.30;99.90;;;;;;5031808;28;20120;-79
2024/01/19 03:21:01;;;;;;;2.40;1.13;;;0.20;99.90;;;;;;5022317;28;20120;-77
2024/01/19 03:23:27;;;;;;;3.00;1.10;;;0.30;99.90;;;;;;5038690;28;20103;-78
2024/01/19 03:25:53;;;;;;;3.40;0.80;;;0.20;99.90;;;;;;5019749;28;20045;-77
2024/01/19 03:28:18;;;;;;;2.75;0.90;;;0.30;99.90;;;;;;5021684;28;20040;-78
2024/01/19 03:30:44;;;;;;;5.10;0.95;;;0.30;99.90;;;;;;5025905;28;20096;-79
2024/01/19 03:33:10;;;;;;;3.13;0.98;;;0.30;99.90;;;;;;5029953;28;20048;-77
2024/01/19 03:35:35;;;;;;;3.75;0.90;;;0.30;99.90;;;;;;5023987;28;20038;-77
2024/01/19 03:38:01;;;;;;;5.10;1.10;;;0.30;99.90;;;;;;5036241;28;20087;-77
2024/01/19 03:40:26;;;;;;;6.95;0.93;;;0.20;99.90;;;;;;5031259;28;20409;-77
2024/01/19 03:42:52;;;;;;;6.45;0.63;;;0.20;99.90;;;;;;5036317;28;20044;-78
2024/01/19 03:45:17;;;;;;;3.28;0.70;;;0.20;99.90;;;;;;5051029;28;20033;-77
2024/01/19 03:47:44;;;;;;;6.18;0.80;;;0.20;99.90;;;;;;5026190;28;20034;-78
2024/01/19 03:50:10;;;;;;;2.15;0.80;;;0.10;99.90;;;;;;5023364;28;20038;-77
2024/01/19 03:52:37;;;;;;;7.00;0.82;;;0.10;99.90;;;;;;5030889;28;20033;-78
2024/01/19 03:55:06;;;;;;;2.70;0.80;;;0.10;99.90;;;;;;5032758;28;20037;-77
2024/01/19 03:57:32;;;;;;;5.63;0.93;;;0.10;99.90;;;;;;5027532;28;20036;-77
2024/01/19 03:59:58;;;;;;;3.70;0.90;;;0.10;99.90;;;;;;5041319;28;20033;-78
2024/01/19 04:02:23;;;;;;;2.85;0.73;;;0.10;99.90;;;;;;5020946;28;20471;-78
2024/01/19 04:04:49;;;;;;;3.17;0.73;;;0.10;99.90;;;;;;5030237;28;20111;-78
2024/01/19 04:07:15;;;;;;;9.10;1.10;;;0.10;99.90;;;;;;5026589;28;20417;-77
2024/01/19 04:09:41;;;;;;;3.42;1.00;;;0.20;99.90;;;;;;5032529;28;20041;-77
2024/01/19 04:12:13;;;;;;;4.30;1.10;;;0.20;99.90;;;;;;5035513;28;20095;-78
2024/01/19 04:14:39;;;;;;;2.78;0.85;;;0.20;99.90;;;;;;5031355;28;20064;-77
2024/01/19 04:17:05;;;;;;;4.57;1.25;;;0.20;99.90;;;;;;5019366;28;20040;-78
2024/01/19 04:19:30;;;;;;;5.38;1.17;;;0.20;99.90;;;;;;5019325;28;20045;-77
2024/01/19 04:21:56;;;;;;;4.53;1.30;;;0.20;99.90;;;;;;5031066;28;20136;-79
2024/01/19 04:24:21;;;;;;;4.60;1.40;;;0.20;99.90;;;;;;5023492;28;20041;-80
2024/01/19 04:26:47;;;;;;;5.10;1.65;;;0.30;99.90;;;;;;5032616;28;20094;-78
2024/01/19 04:29:13;;;;;;;4.03;1.70;;;0.30;99.90;;;;;;5017554;28;20045;-77
2024/01/19 04:31:38;;;;;;;7.25;1.67;;;0.30;99.90;;;;;;5027345;28;20565;-78
2024/01/19 04:34:04;;;;;;;8.18;1.77;;;0.40;99.90;;;;;;5015121;28;20044;-80
2024/01/19 04:36:29;;;;;;;4.82;1.80;;;0.50;99.90;;;;;;5029697;28;20071;-77
2024/01/19 04:38:55;;;;;;;5.60;2.25;;;0.50;99.90;;;;;;5025438;28;20068;-78
2024/01/19 04:41:20;;;;;;;5.75;2.00;;;0.50;99.90;;;;;;5034865;28;20043;-78
2024/01/19 04:43:46;;;;;;;7.50;2.13;;;0.50;99.90;;;;;;5032601;28;20036;-80
2024/01/19 04:46:12;;;;;;;5.20;2.28;;;0.50;99.90;;;;;;5023421;28;20041;-78
2024/01/19 04:48:37;;;;;;;7.07;1.88;;;0.50;99.90;;;;;;5025201;28;20080;-77
2024/01/19 04:51:05;;;;;;;4.95;2.03;;;0.50;99.90;;;;;;5018983;28;20454;-80
2024/01/19 04:53:30;;;;;;;5.88;1.80;;;0.50;99.90;;;;;;5035767;28;20103;-80
2024/01/19 04:55:56;;;;;;;7.43;1.70;;;0.50;99.90;;;;;;5044168;28;20453;-77
2024/01/19 04:58:21;;;;;;;5.03;1.40;;;0.50;99.90;;;;;;5032821;28;20120;-78
2024/01/19 05:00:47;;;;;;;4.00;1.67;;;0.40;99.90;;;;;;5032356;28;20051;-78
2024/01/19 05:03:13;;;;;;;4.65;1.58;;;0.40;99.90;;;;;;5023192;28;20045;-79
2024/01/19 05:05:39;;;;;;;6.03;1.65;;;0.40;99.90;;;;;;5016898;28;20398;-80
2024/01/19 05:08:04;;;;;;;4.53;1.33;;;0.40;99.90;;;;;;5033243;28;20131;-78
2024/01/19 05:10:32;;;;;;;5.20;1.40;;;0.40;99.90;;;;;;5017324;28;20524;-77
2024/01/19 05:12:57;;;;;;;7.32;1.48;;;0.40;99.90;;;;;;5016869;28;20048;-79
2024/01/19 05:15:23;;;;;;;6.60;1.17;;;0.40;99.90;;;;;;5045444;28;20042;-78
2024/01/19 05:17:48;;;;;;;1.92;0.98;;;0.40;99.90;;;;;;5022179;28;20041;-78
2024/01/19 05:20:14;;;;;;;4.40;1.20;;;0.40;99.90;;;;;;5028168;28;20045;-79
2024/01/19 05:22:39;;;;;;;10.27;1.33;;;0.40;99.90;;;;;;5018039;28;20045;-79
2024/01/19 05:25:06;;;;;;;5.00;1.35;;;0.30;99.90;;;;;;5033406;28;20048;-78
2024/01/19 05:27:32;;;;;;;3.35;0.80;;;0.30;99.90;;;;;;5030269;28;20102;-78
2024/01/19 05:29:57;;;;;;;6.15;1.23;;;0.20;99.90;;;;;;5032781;28;20037;-81
2024/01/19 05:32:23;;;;;;;4.80;1.23;;;0.20;99.90;;;;;;5021537;28;20414;-78
2024/01/19 05:34:49;;;;;;;4.75;0.90;;;0.20;99.90;;;;;;5015166;28;20037;-78
2024/01/19 05:37:15;;;;;;;2.95;1.00;;;0.10;99.90;;;;;;5026362;28;20124;-78
2024/01/19 05:39:40;;;;;;;3.33;0.90;;;0.10;99.90;;;;;;5017930;28;20596;-78
2024/01/19 05:42:06;;;;;;;3.28;0.93;;;0.00;99.90;;;;;;5023358;28;20040;-79
2024/01/19 05:44:31;;;;;;;2.13;0.65;;;0.00;99.90;;;;;;5050866;28;20037;-77
2024/01/19 05:46:57;;;;;;;2.72;0.95;;;-0.10;99.90;;;;;;5031091;28;20033;-77
2024/01/19 05:49:22;;;;;;;4.18;0.90;;;-0.10;99.90;;;;;;5025828;28;20064;-77
2024/01/19 05:51:48;;;;;;;2.38;0.85;;;-0.10;99.90;;;;;;5020822;28;20048;-80
2024/01/19 05:54:14;;;;;;;5.68;1.30;;;0.10;99.90;;;;;;5028430;28;20090;-77
2024/01/19 05:56:39;;;;;;;3.83;0.82;;;-0.20;99.90;;;;;;5022997;28;20040;-78
2024/01/19 05:59:05;;;;;;;1.65;0.80;;;-0.20;99.90;;;;;;5048041;28;20033;-79
2024/01/19 06:01:30;;;;;;;3.10;0.90;;;-0.20;99.90;;;;;;5034711;28;20103;-78
2024/01/19 06:03:58;;;;;;;2.60;1.08;;;-0.30;99.90;;;;;;5031166;28;20056;-77
2024/01/19 06:06:24;;;;;;;7.50;1.08;;;-0.30;99.90;;;;;;5042730;28;20037;-78
2024/01/19 06:08:49;;;;;;;4.05;0.80;;;-0.30;99.90;;;;;;5018425;28;20090;-78
2024/01/19 06:11:15;;;;;;;2.13;0.77;;;-0.40;99.90;;;;;;5025453;28;20037;-78
2024/01/19 06:13:41;;;;;;;3.58;0.95;;;-0.40;99.90;;;;;;5032269;28;20040;-77
2024/01/19 06:16:06;;;;;;;5.80;0.73;;;-0.40;99.90;;;;;;5022209;28;20076;-79
2024/01/19 06:18:34;;;;;;;6.05;0.98;;;-0.50;99.90;;;;;;5013538;28;20087;-77
2024/01/19 06:21:02;;;;;;;4.18;0.90;;;-0.50;99.90;;;;;;5017203;28;20128;-77
2024/01/19 06:23:28;;;;;;;3.92;1.00;;;-0.50;99.90;;;;;;5026110;28;20037;-78
2024/01/19 06:25:54;;;;;;;3.55;1.00;;;-0.20;99.90;;;;;;5020026;28;20039;-78
2024/01/19 06:28:21;;;;;;;6.38;0.90;;;-0.50;99.90;;;;;;5013533;28;20076;-79
2024/01/19 06:30:46;;;;;;;7.05;1.20;;;-0.60;99.90;;;;;;5020746;28;20076;-78
2024/01/19 06:33:12;;;;;;;4.45;0.93;;;-0.60;99.90;;;;;;5020386;28;20065;-78
2024/01/19 06:35:37;;;;;;;5.07;0.90;;;-0.60;99.90;;;;;;5054517;28;20056;-78
2024/01/19 06:38:06;;;;;;;2.35;1.00;;;-0.60;99.90;;;;;;5034111;28;20033;-78
2024/01/19 06:40:32;;;;;;;4.70;1.00;;;-0.40;99.90;;;;;;5028260;28;20053;-78
2024/01/19 06:42:57;;;;;;;2.67;0.90;;;-0.60;99.90;;;;;;5025142;28;20418;-78
2024/01/19 06:45:23;;;;;;;3.60;1.00;;;-0.60;99.90;;;;;;5049518;28;20528;-78
2024/01/19 06:47:48;;;;;;;4.43;0.93;;;-0.50;99.90;;;;;;5046102;28;20037;-78
2024/01/19 06:50:14;;;;;;;4.22;0.90;;;-0.50;99.90;;;;;;5030241;28;20045;-78
2024/01/19 06:52:39;;;;;;;7.70;1.20;;;-0.60;99.90;;;;;;5030874;28;20037;-78
2024/01/19 06:55:05;;;;;;;6.22;0.93;;;-0.60;99.90;;;;;;5029051;28;20548;-78
2024/01/19 06:57:31;;;;;;;10.50;1.42;;;-0.60;99.90;;;;;;5023403;28;20398;-78
2024/01/19 06:59:57;;;;;;;3.53;1.00;;;-0.60;99.90;;;;;;5016914;28;20037;-78
2024/01/19 07:02:23;;;;;;;4.18;1.10;;;-0.30;99.90;;;;;;5023940;28;20410;-78
2024/01/19 07:04:49;;;;;;;6.43;1.13;;;-0.50;99.90;;;;;;5027206;28;20045;-78
2024/01/19 07:07:15;;;;;;;7.82;2.13;;;-0.50;99.90;;;;;;5021537;28;20107;-78
2024/01/19 07:09:40;;;;;;;4.65;1.13;;;-0.50;99.90;;;;;;5028280;28;20048;-79
2024/01/19 07:12:06;;;;;;;5.68;1.23;;;-0.20;99.90;;;;;;5051095;28;20421;-78
2024/01/19 07:14:32;;;;;;;3.75;0.98;;;-0.40;99.90;;;;;;5008556;28;20045;-78
2024/01/19 07:16:57;;;;;;;5.95;1.50;;;-0.30;99.90;;;;;;5040560;28;20072;-78
2024/01/19 07:19:23;;;;;;;6.10;1.42;;;-0.30;99.90;;;;;;5021695;28;20498;-79
2024/01/19 07:21:48;;;;;;;4.93;1.40;;;-0.30;99.90;;;;;;5018695;28;20072;-77
2024/01/19 07:24:14;;;;;;;10.18;1.40;;;-0.20;99.90;;;;;;5038738;28;20091;-77
2024/01/19 07:26:40;;;;;;;5.60;1.40;;;-0.20;99.90;;;;;;5002472;28;20053;-81
2024/01/19 07:29:07;;;;;;;3.67;1.13;;;-0.20;99.90;;;;;;5020029;28;20045;-80
2024/01/19 07:31:33;;;;;;;6.60;1.55;;;-0.20;99.90;;;;;;5024885;28;20056;-79
2024/01/19 07:33:59;;;;;;;5.85;1.42;;;-0.10;99.90;;;;;;5032590;28;20098;-79
2024/01/19 07:36:26;;;;;;;3.08;1.40;;;-0.10;99.90;;;;;;5035406;28;20047;-77
2024/01/19 07:38:52;;;;;;;5.30;1.38;;;-0.10;99.90;;;;;;5048873;28;20545;-78
2024/01/19 07:41:17;;;;;;;6.75;1.20;;;0.00;99.90;;;;;;5020172;28;20115;-79
2024/01/19 07:43:43;;;;;;;5.72;1.40;;;0.00;99.90;;;;;;5022619;28;20045;-77
2024/01/19 07:46:09;;;;;;;6.05;1.58;;;0.00;99.90;;;;;;5021633;28;20042;-77
2024/01/19 07:48:34;;;;;;;6.32;1.60;;;0.00;99.90;;;;;;5024317;28;20481;-77
2024/01/19 07:51:00;;;;;;;7.63;1.70;;;0.00;99.90;;;;;;5027216;28;20091;-78
2024/01/19 07:53:25;;;;;;;5.65;1.65;;;0.10;99.90;;;;;;5044105;28;20083;-81
2024/01/19 07:55:51;;;;;;;7.60;1.65;;;0.10;99.90;;;;;;5045042;28;20040;-78
2024/01/19 07:58:16;;;;;;;5.53;1.58;;;0.00;99.90;;;;;;5022012;28;20036;-79
2024/01/19 08:00:42;;;;;;;4.28;1.30;;;0.00;99.90;;;;;;5026795;28;20045;-79
2024/01/19 08:03:08;;;;;;;4.65;1.60;;;0.00;99.90;;;;;;5034333;28;20055;-79
2024/01/19 08:05:34;;;;;;;3.83;1.58;;;-0.10;99.90;;;;;;5031109;28;20048;-82
2024/01/19 08:08:00;;;;;;;5.57;1.63;;;0.00;99.90;;;;;;5030538;28;20498;-79
2024/01/19 08:10:25;;;;;;;4.63;1.70;;;-0.10;99.90;;;;;;5029752;28;20045;-79
2024/01/19 08:12:51;;;;;;;10.38;2.30;;;-0.10;99.90;;;;;;5026880;28;20047;-79
2024/01/19 08:15:17;;;;;;;7.90;1.90;;;-0.20;99.90;;;;;;5030053;28;20128;-79
2024/01/19 08:17:42;;;;;;;5.53;1.90;;;-0.10;99.90;;;;;;5035179;28;20040;-82
2024/01/19 08:20:11;;;;;;;5.40;1.63;;;-0.10;99.90;;;;;;5030819;28;20034;-79
2024/01/19 08:22:37;;;;;;;5.53;1.85;;;-0.10;99.90;;;;;;5036290;28;20040;-83
2024/01/19 08:25:04;;;;;;;5.65;1.85;;;-0.10;99.90;;;;;;5031403;28;20463;-78
2024/01/19 08:27:30;;;;;;;8.20;2.47;;;-0.10;99.90;;;;;;5037351;28;20448;-77
2024/01/19 08:29:55;;;;;;;4.07;1.60;;;-0.10;99.90;;;;;;5050951;28;20083;-80
2024/01/19 08:32:23;;;;;;;3.67;1.98;;;0.00;99.90;;;;;;5021387;28;20049;-79
2024/01/19 08:34:49;;;;;;;5.55;1.90;;;0.00;99.90;;;;;;5031864;28;20037;-80
2024/01/19 08:37:15;;;;;;;5.82;1.75;;;0.00;99.90;;;;;;5030118;28;20044;-78
2024/01/19 08:39:40;;;;;;;5.82;2.15;;;0.00;99.90;;;;;;5025203;28;20080;-79
2024/01/19 08:42:06;;;;;;;7.20;2.20;;;0.00;99.90;;;;;;5045626;28;20045;-79
2024/01/19 08:44:32;;;;;;;6.97;2.13;;;0.00;99.90;;;;;;5026894;28;20386;-80
2024/01/19 08:46:58;;;;;;;7.63;2.40;;;0.00;99.90;;;;;;5033775;28;20071;-78
2024/01/19 08:49:24;;;;;;;10.85;2.65;;;0.00;99.90;;;;;;5023223;28;20410;-80
2024/01/19 08:51:51;;;;;;;11.35;2.60;;;0.00;99.90;;;;;;5030971;28;20053;-79
2024/01/19 08:54:20;;;;;;;7.47;2.65;;;0.00;99.90;;;;;;5030520;28;20119;-79
2024/01/19 08:56:45;;;;;;;9.25;2.33;;;0.00;99.90;;;;;;5023465;28;20037;-82
2024/01/19 08:59:13;;;;;;;11.63;2.65;;;0.00;99.90;;;;;;5033400;28;20044;-79
2024/01/19 09:01:39;;;;;;;8.10;2.92;;;0.20;99.90;;;;;;5033987;28;20045;-78
2024/01/19 09:04:05;;;;;;;9.70;2.97;;;0.10;99.90;;;;;;5033943;28;20487;-78
2024/01/19 09:06:30;;;;;;;12.60;3.08;;;0.10;99.90;;;;;;5033847;28;20401;-78
2024/01/19 09:09:01;;;;;;;12.85;3.75;;;0.10;99.90;;;;;;5018857;28;20092;-79
2024/01/19 09:11:26;;;;;;;12.23;3.67;;;0.10;99.90;;;;;;5031567;28;20048;-79
2024/01/19 09:13:52;;;;;;;13.20;3.72;;;0.10;99.90;;;;;;5029824;28;20041;-78
2024/01/19 09:18:53;;;;;;;10.85;3.38;;;0.20;99.90;;;;;;5332750;23;20053;-79
2024/01/19 09:21:19;;;;;;;11.05;3.63;;;0.20;99.90;;;;;;5015183;28;20119;-79
2024/01/19 09:23:44;;;;;;;11.50;4.10;;;0.20;99.90;;;;;;5011334;28;20071;-78
2024/01/19 09:26:21;;;;;;;9.68;3.30;;;0.20;99.90;;;;;;5013166;28;20052;-78
2024/01/19 09:28:47;;;;;;;9.73;3.55;;;0.30;99.90;;;;;;5009071;28;20498;-78
2024/01/19 09:31:14;;;;;;;8.65;3.70;;;0.30;99.90;;;;;;4996993;28;20053;-77
2024/01/19 09:33:39;;;;;;;15.82;3.67;;;0.30;99.90;;;;;;4999850;28;20506;-79
2024/01/19 09:36:06;;;;;;;12.13;3.88;;;0.30;99.90;;;;;;5001803;28;20049;-79
2024/01/19 09:38:35;;;;;;;12.98;3.90;;;0.40;99.90;;;;;;5008031;28;20046;-79
2024/01/19 09:41:19;;;;;;;14.48;4.45;;;0.40;99.90;;;;;;5004746;28;20048;-79
2024/01/19 09:43:45;;;;;;;11.30;4.25;;;0.40;99.90;;;;;;5009924;28;20046;-77
2024/01/19 09:46:19;;;;;;;11.48;3.95;;;0.50;99.90;;;;;;5007345;28;20053;-80
2024/01/19 09:49:07;;;;;;;14.43;4.22;;;0.50;99.90;;;;;;5005818;28;20046;-78
2024/01/19 09:51:47;;;;;;;15.65;4.65;;;0.50;99.90;;;;;;5000490;28;20046;-78
2024/01/19 09:54:20;;;;;;;10.10;3.50;;;0.60;99.90;;;;;;5008925;28;20050;-78
2024/01/19 09:56:46;;;;;;;9.40;3.53;;;0.60;99.90;;;;;;4995504;28;20038;-79
2024/01/19 09:59:13;;;;;;;13.80;3.78;;;0.60;99.90;;;;;;5002037;28;20046;-80
2024/01/19 10:01:39;;;;;;;9.98;3.63;;;0.60;99.90;;;;;;5003099;28;20080;-79
2024/01/19 10:04:06;;;;;;;8.90;3.75;;;0.70;99.90;;;;;;4996915;28;20491;-79
2024/01/19 10:06:33;;;;;;;10.80;3.80;;;0.70;99.90;;;;;;5008205;28;20058;-79
2024/01/19 10:08:59;;;;;;;13.10;3.85;;;0.80;99.90;;;;;;5001733;28;20038;-79
2024/01/19 10:11:29;;;;;;;9.02;3.28;;;0.80;99.90;;;;;;5004181;28;20056;-80
2024/01/19 10:13:54;;;;;;;13.02;3.38;;;0.80;99.90;;;;;;5002025;28;20045;-80
2024/01/19 10:16:20;;;;;;;7.50;3.30;;;0.90;99.90;;;;;;5005507;28;20647;-79
2024/01/19 10:18:46;;;;;;;6.95;3.38;;;0.90;99.90;;;;;;4969559;28;1040566;-78
2024/01/19 10:21:13;;;;;;;8.80;3.33;;;1.00;99.90;;;;;;5003713;28;20503;-79
2024/01/19 10:23:41;;;;;;;8.90;3.28;;;1.00;99.90;;;;;;4987907;28;20036;-79
2024/01/19 10:26:14;;;;;;;14.77;3.30;;;1.00;99.90;;;;;;5004663;28;20060;-79
2024/01/19 10:28:40;;;;;;;10.15;3.30;;;1.00;99.90;;;;;;5000539;28;20467;-79
2024/01/19 10:31:17;;;;;;;11.43;3.45;;;1.10;99.90;;;;;;5002869;28;20073;-79
2024/01/19 10:33:50;;;;;;;7.32;2.85;;;1.10;99.90;;;;;;5003566;28;20553;-79
2024/01/19 10:36:16;;;;;;;8.07;3.17;;;1.20;99.90;;;;;;5002252;28;20041;-79
2024/01/19 10:38:41;;;;;;;10.75;3.53;;;1.20;99.90;;;;;;5013325;28;20050;-79
2024/01/19 10:41:22;;;;;;;9.82;3.20;;;1.20;99.90;;;;;;5009783;28;20518;-79
2024/01/19 10:43:47;;;;;;;10.85;3.47;;;1.20;99.90;;;;;;5009956;28;20045;-79
2024/01/19 10:46:19;;;;;;;8.95;2.80;;;1.30;99.90;;;;;;5009268;28;20065;-80
2024/01/19 10:48:46;;;;;;;14.60;3.38;;;1.30;99.90;;;;;;5005278;28;20037;-78
2024/01/19 10:51:13;;;;;;;11.55;2.65;;;1.40;99.90;;;;;;5002915;28;20073;-80
2024/01/19 10:53:39;;;;;;;22.13;3.53;;;1.40;99.90;;;;;;4997470;28;20435;-78
2024/01/19 10:56:04;;;;;;;17.73;3.42;;;1.50;99.90;;;;;;5001009;28;20046;-80
2024/01/19 10:58:33;;;;;;;12.25;3.17;;;1.50;99.90;;;;;;5003596;28;20165;-80
2024/01/19 11:01:16;;;;;;;14.15;3.13;;;1.50;99.90;;;;;;5004446;28;20046;-79
2024/01/19 11:03:43;;;;;;;10.48;2.67;;;1.50;99.90;;;;;;4987779;28;20042;-79
2024/01/19 11:06:09;;;;;;;12.48;3.20;;;1.50;99.90;;;;;;5004659;28;20740;-80
2024/01/19 11:08:36;;;;;;;11.98;3.28;;;1.60;99.90;;;;;;5005082;28;20072;-80
2024/01/19 11:11:04;;;;;;;9.23;3.15;;;1.70;99.90;;;;;;5004991;28;20132;-74
2024/01/19 11:13:35;;;;;;;9.82;2.97;;;1.70;99.90;;;;;;5002533;28;20085;-81
2024/01/19 11:16:06;;;;;;;12.75;3.00;;;1.80;99.90;;;;;;4998530;28;20196;-80
2024/01/19 11:18:32;;;;;;;11.40;3.22;;;1.70;99.90;;;;;;5001385;28;20386;-80
2024/01/19 11:20:58;;;;;;;11.18;2.90;;;1.80;99.90;;;;;;5008109;28;20033;-80
2024/01/19 11:23:24;;;;;;;8.85;3.03;;;1.90;99.90;;;;;;5006217;28;20054;-80
2024/01/19 11:25:50;;;;;;;13.57;3.20;;;1.90;99.90;;;;;;5006369;28;20449;-81
2024/01/19 11:28:43;;;;;;;11.82;3.30;;;1.90;99.90;;;;;;5011187;28;20046;-79
2024/01/19 11:31:18;;;;;;;11.95;3.22;;;1.90;99.90;;;;;;5007951;28;20512;-81
2024/01/19 11:33:45;;;;;;;10.23;3.17;;;2.00;99.90;;;;;;5012069;28;20544;-80
2024/01/19 11:36:31;;;;;;;15.70;3.13;;;2.00;99.90;;;;;;5007726;28;20410;-81
2024/01/19 11:38:56;;;;;;;11.18;2.90;;;2.10;99.90;;;;;;5006225;28;20367;-81
2024/01/19 11:41:31;;;;;;;12.57;3.17;;;2.10;99.90;;;;;;5008498;28;20117;-82
2024/01/19 11:43:57;;;;;;;8.75;3.40;;;2.20;99.90;;;;;;5013474;28;20077;-82
2024/01/19 11:46:50;;;;;;;11.63;3.38;;;2.30;99.90;;;;;;5006311;28;20069;-82
2024/01/19 11:49:35;;;;;;;13.50;3.72;;;2.30;99.90;;;;;;5005127;28;20530;-82
2024/01/19 11:52:03;;;;;;;15.70;3.60;;;2.40;99.90;;;;;;5010693;28;20099;-82
2024/01/19 11:54:32;;;;;;;15.45;4.00;;;2.40;99.90;;;;;;5010984;28;20653;-80
2024/01/19 11:57:17;;;;;;;12.80;3.13;;;2.50;99.90;;;;;;5006609;28;20048;-81
2024/01/19 11:59:46;;;;;;;13.30;3.50;;;2.60;99.90;;;;;;5004825;28;20502;-79
2024/01/19 12:02:31;;;;;;;8.95;3.13;;;2.70;99.90;;;;;;5011719;28;20410;-80
2024/01/19 12:05:02;;;;;;;9.35;3.28;;;2.70;99.90;;;;;;4996069;28;20427;-79
2024/01/19 12:07:28;;;;;;;11.63;2.92;;;2.80;99.90;;;;;;4995250;28;20050;-80
2024/01/19 12:10:18;;;;;;;18.05;3.28;;;2.80;99.90;;;;;;4994607;28;20064;-81
2024/01/19 12:12:46;;;;;;;11.98;3.10;;;2.90;99.90;;;;;;5005674;28;20519;-80
2024/01/19 12:15:15;;;;;;;17.33;3.35;;;3.00;99.90;;;;;;5004245;28;20046;-82
2024/01/19 12:17:42;;;;;;;11.75;3.08;;;3.00;99.90;;;;;;5007874;28;20053;-82
2024/01/19 12:20:09;;;;;;;7.25;2.67;;;3.10;99.90;;;;;;5009099;28;20541;-82
2024/01/19 12:22:35;;;;;;;10.27;3.38;;;3.10;99.90;;;;;;5003821;28;20046;-82
2024/01/19 12:25:22;;;;;;;6.38;2.50;;;3.20;99.90;;;;;;5003632;28;20067;-81
2024/01/19 12:27:48;;;;;;;9.93;2.72;;;3.20;99.90;;;;;;5002306;28;20088;-80
2024/01/19 12:30:16;;;;;;;11.57;2.78;;;3.20;99.90;;;;;;5008766;28;20426;-82
2024/01/19 12:32:43;;;;;;;10.80;2.90;;;3.30;99.90;;;;;;5009245;28;20394;-82
2024/01/19 12:35:08;;;;;;;10.75;2.88;;;3.40;99.90;;;;;;5009360;28;20054;-81
2024/01/19 12:37:34;;;;;;;11.85;2.50;;;3.40;99.90;;;;;;5005584;28;20041;-81
2024/01/19 12:40:14;;;;;;;8.23;2.80;;;3.50;99.90;;;;;;5003748;28;20540;-80
2024/01/19 12:42:44;;;;;;;10.05;2.80;;;3.50;99.90;;;;;;5001615;28;20097;-81
2024/01/19 12:45:13;;;;;;;8.52;2.30;;;3.50;99.90;;;;;;5010927;28;20046;-82
2024/01/19 12:47:47;;;;;;;12.20;2.42;;;3.50;99.90;;;;;;5009479;28;20042;-80
2024/01/19 12:50:13;;;;;;;12.57;2.60;;;3.60;99.90;;;;;;5006504;28;20041;-78
2024/01/19 12:52:39;;;;;;;14.32;2.85;;;3.60;99.90;;;;;;4996948;28;20035;-79